Time;durP1;ratioP1;P1;durP2;ratioP2;P2;SDS_P1;SDS_P2;PMS_P1;PMS_P2;Temp;Humidity;BMP_temperature;BMP_pressure;BME280_temperature;BME280_humidity;BME280_pressure;Samples;Min_cycle;Max_cycle;Signal;HPM_P1;HPM_P2
2023/01/10 00:00:45;;;;;;;0.60;0.60;;;;;;;5.40;100.00;99067.63;5051029;28;20193;-64
2023/01/10 00:03:12;;;;;;;0.80;0.80;;;;;;;5.40;100.00;99074.41;5050936;28;20262;-64
2023/01/10 00:05:40;;;;;;;0.60;0.60;;;;;;;5.42;100.00;99080.31;5046906;28;20228;-65
2023/01/10 00:08:08;;;;;;;0.87;0.87;;;;;;;5.46;100.00;99066.72;5050331;28;20196;-65
2023/01/10 00:10:35;;;;;;;0.60;0.60;;;;;;;5.45;100.00;99062.50;5050044;28;20266;-65
2023/01/10 00:15:47;;;;;;;1.53;1.53;;;;;;;5.34;100.00;99051.63;5051085;28;20703;-65
2023/01/10 00:18:14;;;;;;;0.67;0.67;;;;;;;5.35;100.00;99038.91;5049325;28;20208;-65
2023/01/10 00:20:43;;;;;;;0.70;0.70;;;;;;;5.26;100.00;99032.28;5050600;28;20207;-65
2023/01/10 00:23:10;;;;;;;1.27;1.27;;;;;;;5.21;100.00;99008.63;5050092;28;20283;-64
2023/01/10 00:25:37;;;;;;;0.70;0.70;;;;;;;5.23;100.00;99024.66;5050270;28;20255;-64
2023/01/10 00:28:10;;;;;;;0.90;0.90;;;;;;;5.23;100.00;99023.84;5049862;28;20279;-64
2023/01/10 00:30:38;;;;;;;0.97;0.97;;;;;;;5.30;100.00;99028.81;5049984;28;20228;-65
2023/01/10 00:33:07;;;;;;;0.70;0.70;;;;;;;5.37;100.00;99023.63;5049437;28;20193;-65
2023/01/10 00:35:34;;;;;;;0.63;0.63;;;;;;;5.43;100.00;99021.00;5050362;28;20283;-65
2023/01/10 00:38:04;;;;;;;1.00;1.00;;;;;;;5.44;100.00;99022.66;5049896;28;20208;-65
2023/01/10 00:40:31;;;;;;;0.67;0.67;;;;;;;5.37;100.00;99021.06;5050302;28;20207;-65
2023/01/10 00:45:44;;;;;;;0.53;0.53;;;;;;;5.46;100.00;99008.25;5050406;28;20204;-65
2023/01/10 00:48:13;;;;;;;0.67;0.67;;;;;;;5.41;100.00;98993.06;5049987;28;20193;-64
2023/01/10 00:50:40;;;;;;;0.70;0.70;;;;;;;5.51;100.00;99014.09;5049921;28;20217;-65
2023/01/10 00:53:07;;;;;;;1.00;1.00;;;;;;;5.58;100.00;99020.75;5050210;28;20618;-65
2023/01/10 00:55:35;;;;;;;0.50;0.50;;;;;;;5.54;100.00;99019.13;5048936;28;20196;-65
2023/01/10 00:58:02;;;;;;;0.53;0.53;;;;;;;5.59;100.00;99023.25;5049781;28;20254;-65
2023/01/10 01:00:30;;;;;;;0.80;0.80;;;;;;;5.60;100.00;99008.84;5049861;28;20278;-65
2023/01/10 01:02:57;;;;;;;0.50;0.50;;;;;;;5.61;100.00;99011.38;5046823;28;20204;-65
2023/01/10 01:05:26;;;;;;;0.50;0.50;;;;;;;5.70;100.00;99011.22;5049074;28;20309;-65
2023/01/10 01:07:52;;;;;;;0.87;0.87;;;;;;;5.74;100.00;99009.47;5046945;28;20204;-65
2023/01/10 01:10:28;;;;;;;0.53;0.53;;;;;;;5.79;100.00;99016.16;5050203;28;20225;-65
2023/01/10 01:12:57;;;;;;;0.73;0.73;;;;;;;5.80;100.00;98989.00;5050062;28;20202;-65
2023/01/10 01:15:25;;;;;;;0.60;0.60;;;;;;;5.72;100.00;98990.84;5049867;28;20197;-65
2023/01/10 01:17:52;;;;;;;0.53;0.53;;;;;;;5.73;100.00;98995.06;5049685;28;20275;-64
2023/01/10 01:20:20;;;;;;;0.50;0.50;;;;;;;5.68;100.00;98991.78;5050139;28;20197;-65
2023/01/10 01:22:48;;;;;;;0.60;0.60;;;;;;;5.78;100.00;99013.66;5049718;28;20211;-64
2023/01/10 01:25:15;;;;;;;0.50;0.50;;;;;;;5.72;100.00;98988.28;5049132;28;20209;-65
2023/01/10 01:27:42;;;;;;;0.57;0.57;;;;;;;5.69;100.00;98983.25;5049549;28;20680;-64
2023/01/10 01:30:11;;;;;;;0.60;0.60;;;;;;;5.78;100.00;99003.47;5048920;28;20217;-65
2023/01/10 01:32:38;;;;;;;0.70;0.70;;;;;;;5.74;100.00;98986.59;5049699;28;20283;-64
2023/01/10 01:35:06;;;;;;;0.93;0.93;;;;;;;5.81;100.00;98985.63;5049695;28;20346;-64
2023/01/10 01:37:32;;;;;;;1.50;1.50;;;;;;;5.71;100.00;98961.22;5049802;28;20196;-64
2023/01/10 01:40:01;;;;;;;0.70;0.70;;;;;;;5.76;100.00;98955.16;5049609;28;20693;-64
2023/01/10 01:42:29;;;;;;;0.60;0.60;;;;;;;5.89;100.00;98970.22;5049577;28;20303;-65
2023/01/10 01:45:33;;;;;;;0.60;0.60;;;;;;;5.89;100.00;98950.72;5050826;28;20204;-65
2023/01/10 01:48:03;;;;;;;0.70;0.70;;;;;;;5.87;100.00;98937.19;5053003;28;20192;-65
2023/01/10 01:50:36;;;;;;;1.23;1.23;;;;;;;5.83;100.00;98940.63;5053392;28;20270;-65
2023/01/10 01:53:09;;;;;;;0.47;0.47;;;;;;;5.76;100.00;98945.00;5052933;28;20235;-64
2023/01/10 01:55:39;;;;;;;0.53;0.53;;;;;;;5.83;100.00;98955.91;5053193;28;20199;-64
2023/01/10 01:58:11;;;;;;;0.70;0.70;;;;;;;5.87;100.00;98949.94;5053041;28;20197;-65
2023/01/10 02:00:38;;;;;;;0.50;0.50;;;;;;;5.88;100.00;98932.97;5052818;28;20189;-65
2023/01/10 02:03:06;;;;;;;0.60;0.60;;;;;;;5.92;100.00;98935.41;5053075;28;20644;-65
2023/01/10 02:05:37;;;;;;;0.70;0.70;;;;;;;5.94;100.00;98918.41;5052360;28;20231;-64
2023/01/10 02:08:04;;;;;;;0.57;0.57;;;;;;;5.92;100.00;98920.13;5052820;28;20192;-65
2023/01/10 02:10:37;;;;;;;0.50;0.50;;;;;;;5.92;100.00;98907.41;5052686;28;20218;-65
2023/01/10 02:13:09;;;;;;;0.50;0.50;;;;;;;5.86;100.00;98886.34;5052442;28;20197;-65
2023/01/10 02:15:35;;;;;;;0.50;0.50;;;;;;;5.92;100.00;98899.78;5051492;28;20200;-64
2023/01/10 02:18:04;;;;;;;0.50;0.50;;;;;;;5.94;100.00;98903.16;5051801;28;20203;-65
2023/01/10 02:20:39;;;;;;;0.70;0.70;;;;;;;5.96;100.00;98896.31;5052722;28;20207;-65
2023/01/10 02:23:54;;;;;;;0.70;0.70;;;;;;;5.99;100.00;98891.16;5052899;28;20204;-65
2023/01/10 02:26:52;;;;;;;1.47;1.37;;;;;;;5.85;100.00;98872.75;5025442;28;20638;-65
2023/01/10 02:29:51;;;;;;;0.70;0.70;;;;;;;5.86;100.00;98863.47;5052185;28;20208;-65
2023/01/10 02:32:34;;;;;;;0.40;0.40;;;;;;;5.73;100.00;98842.50;5049983;28;20228;-65
2023/01/10 02:35:11;;;;;;;1.07;1.07;;;;;;;5.69;100.00;98840.88;5053040;28;20655;-65
2023/01/10 02:37:50;;;;;;;5.67;0.93;;;;;;;5.74;100.00;98842.47;5052577;28;20686;-64
2023/01/10 02:40:24;;;;;;;0.60;0.60;;;;;;;5.67;100.00;98858.72;5052488;28;20192;-65
2023/01/10 02:42:57;;;;;;;0.50;0.50;;;;;;;5.73;100.00;98873.00;5052364;28;20193;-65
2023/01/10 02:45:29;;;;;;;0.77;0.77;;;;;;;5.80;100.00;98865.22;5052371;28;20197;-65
2023/01/10 02:47:58;;;;;;;0.50;0.50;;;;;;;5.81;100.00;98861.00;5052436;28;20783;-64
2023/01/10 02:50:31;;;;;;;0.93;0.93;;;;;;;5.88;100.00;98866.84;5052302;28;20213;-65
2023/01/10 02:53:04;;;;;;;0.50;0.50;;;;;;;5.87;100.00;98866.00;5052258;28;20590;-65
2023/01/10 02:55:49;;;;;;;0.53;0.53;;;;;;;5.87;100.00;98860.91;5051376;28;20914;-65
2023/01/10 02:58:29;;;;;;;0.50;0.50;;;;;;;5.90;100.00;98870.16;5051836;28;20213;-64
2023/01/10 03:01:00;;;;;;;0.60;0.60;;;;;;;5.91;100.00;98872.69;5051979;28;20188;-65
2023/01/10 03:03:40;;;;;;;1.07;1.07;;;;;;;5.69;100.00;98868.84;5051884;28;20201;-64
2023/01/10 03:06:18;;;;;;;0.60;0.60;;;;;;;5.59;100.00;98875.78;5051363;28;20600;-65
2023/01/10 03:08:54;;;;;;;1.10;1.10;;;;;;;5.57;100.00;98877.53;5051760;28;20204;-65
2023/01/10 03:11:38;;;;;;;1.00;1.00;;;;;;;5.59;100.00;98875.00;5051999;28;20223;-65
2023/01/10 03:14:10;;;;;;;0.60;0.60;;;;;;;5.62;100.00;98864.75;5051696;28;20192;-64
2023/01/10 03:16:39;;;;;;;0.90;0.90;;;;;;;5.55;100.00;98843.69;5051692;28;20216;-65
2023/01/10 03:19:12;;;;;;;0.60;0.60;;;;;;;5.49;100.00;98845.50;5051422;28;20588;-64
2023/01/10 03:21:43;;;;;;;0.57;0.57;;;;;;;5.44;100.00;98847.28;5051479;28;20197;-65
2023/01/10 03:24:17;;;;;;;0.70;0.70;;;;;;;5.43;100.00;98838.00;5051715;28;20201;-64
2023/01/10 03:26:48;;;;;;;0.90;0.90;;;;;;;5.42;100.00;98849.03;5051285;28;20665;-65
2023/01/10 03:29:21;;;;;;;0.60;0.60;;;;;;;5.32;100.00;98847.50;5051506;28;20622;-64
2023/01/10 03:31:53;;;;;;;0.53;0.53;;;;;;;5.19;100.00;98824.03;5051482;28;20227;-64
2023/01/10 03:34:23;;;;;;;0.70;0.70;;;;;;;5.21;100.00;98815.50;5051513;28;20669;-65
2023/01/10 03:36:57;;;;;;;0.70;0.70;;;;;;;5.19;100.00;98822.34;5048957;28;20205;-64
2023/01/10 03:39:32;;;;;;;0.60;0.60;;;;;;;5.21;100.00;98838.38;5051134;28;20204;-64
2023/01/10 03:42:06;;;;;;;0.50;0.50;;;;;;;5.16;100.00;98840.19;5051220;28;20188;-64
2023/01/10 03:44:43;;;;;;;0.90;0.90;;;;;;;5.11;100.00;98820.78;5051424;28;20197;-65
2023/01/10 03:47:16;;;;;;;0.60;0.60;;;;;;;5.19;100.00;98826.56;5050951;28;20604;-64
2023/01/10 03:49:47;;;;;;;0.90;0.90;;;;;;;5.22;100.00;98814.66;5051397;28;20197;-64
2023/01/10 03:52:19;;;;;;;1.07;1.07;;;;;;;5.13;100.00;98794.50;5050981;28;20303;-64
2023/01/10 03:54:46;;;;;;;0.50;0.50;;;;;;;5.17;100.00;98795.28;5051344;28;20266;-64
2023/01/10 03:57:18;;;;;;;0.53;0.53;;;;;;;5.24;100.00;98777.34;5050604;28;20197;-64
2023/01/10 03:59:46;;;;;;;0.80;0.80;;;;;;;5.22;100.00;98761.28;5051363;28;20233;-65
2023/01/10 04:02:13;;;;;;;0.60;0.60;;;;;;;5.36;100.00;98773.75;5050626;28;20285;-65
2023/01/10 04:04:42;;;;;;;0.57;0.57;;;;;;;5.33;100.00;98771.28;5050387;28;20225;-65
2023/01/10 04:07:10;;;;;;;0.63;0.63;;;;;;;5.19;100.00;98756.28;5050730;28;20589;-64
2023/01/10 04:09:37;;;;;;;0.80;0.80;;;;;;;5.23;100.00;98765.50;5050602;28;20196;-65
2023/01/10 04:12:04;;;;;;;0.60;0.60;;;;;;;5.24;100.00;98751.94;5050492;28;20224;-65
2023/01/10 04:14:31;;;;;;;0.80;0.80;;;;;;;5.37;100.00;98787.25;5050515;28;20200;-64
2023/01/10 04:16:58;;;;;;;0.70;0.70;;;;;;;5.30;100.00;98772.13;5050655;28;20293;-65
2023/01/10 04:19:25;;;;;;;0.50;0.50;;;;;;;5.36;100.00;98795.78;5050218;28;20201;-65
2023/01/10 04:21:52;;;;;;;0.80;0.80;;;;;;;5.40;100.00;98798.22;5049221;28;20573;-64
2023/01/10 04:24:21;;;;;;;0.87;0.87;;;;;;;5.38;100.00;98788.94;5049707;28;20229;-65
2023/01/10 04:26:47;;;;;;;0.60;0.60;;;;;;;5.41;100.00;98806.69;5050457;28;20201;-64
2023/01/10 04:29:14;;;;;;;0.50;0.50;;;;;;;5.45;100.00;98798.13;5050216;28;20201;-65
2023/01/10 04:31:41;;;;;;;0.80;0.80;;;;;;;5.46;100.00;98777.75;5050195;28;20692;-64
2023/01/10 04:34:08;;;;;;;0.53;0.53;;;;;;;5.50;100.00;98793.78;5050397;28;20208;-65
2023/01/10 04:36:36;;;;;;;0.70;0.70;;;;;;;5.52;100.00;98782.75;5050071;28;20192;-64
2023/01/10 04:39:03;;;;;;;0.60;0.60;;;;;;;5.34;100.00;98767.00;5050513;28;20235;-65
2023/01/10 04:41:31;;;;;;;0.70;0.70;;;;;;;5.53;100.00;98781.00;5049973;28;20196;-64
2023/01/10 04:43:58;;;;;;;0.70;0.70;;;;;;;5.54;100.00;98764.91;5050367;28;20255;-65
2023/01/10 04:46:24;;;;;;;0.70;0.70;;;;;;;5.57;100.00;98780.94;5050111;28;20576;-65
2023/01/10 04:48:51;;;;;;;0.80;0.80;;;;;;;5.60;100.00;98780.03;5049993;28;20199;-65
2023/01/10 04:51:18;;;;;;;1.00;1.00;;;;;;;5.60;100.00;98769.88;5050166;28;20311;-65
2023/01/10 04:53:45;;;;;;;0.50;0.50;;;;;;;5.64;100.00;98779.09;5048212;28;20696;-64
2023/01/10 04:56:16;;;;;;;0.50;0.50;;;;;;;5.65;100.00;98793.50;5050406;28;20274;-64
2023/01/10 04:58:45;;;;;;;0.50;0.50;;;;;;;5.57;100.00;98783.47;5049673;28;20196;-64
2023/01/10 05:01:14;;;;;;;0.40;0.40;;;;;;;5.55;100.00;98776.75;5050096;28;20205;-64
2023/01/10 05:03:40;;;;;;;0.57;0.57;;;;;;;5.53;100.00;98769.16;5049695;28;20254;-64
2023/01/10 05:06:08;;;;;;;0.60;0.60;;;;;;;5.52;100.00;98736.16;5049952;28;20204;-64
2023/01/10 05:08:35;;;;;;;0.57;0.57;;;;;;;5.54;100.00;98742.88;5050066;28;20200;-65
2023/01/10 05:11:02;;;;;;;0.70;0.70;;;;;;;5.54;100.00;98735.25;5048793;28;20700;-64
2023/01/10 05:13:29;;;;;;;0.63;0.63;;;;;;;5.61;100.00;98733.41;5047820;28;20206;-65
2023/01/10 05:15:57;;;;;;;0.60;0.60;;;;;;;5.67;100.00;98740.91;5044200;28;20202;-65
2023/01/10 05:18:26;;;;;;;0.60;0.60;;;;;;;5.70;100.00;98745.94;5037953;28;20212;-64
2023/01/10 05:20:54;;;;;;;1.67;1.53;;;;;;;5.72;100.00;98742.47;5048993;28;20207;-65
2023/01/10 05:23:21;;;;;;;0.53;0.53;;;;;;;5.77;100.00;98733.06;5046772;28;20197;-65
2023/01/10 05:25:48;;;;;;;0.80;0.80;;;;;;;5.79;100.00;98740.63;5050920;28;20207;-64
2023/01/10 05:28:14;;;;;;;0.87;0.87;;;;;;;5.80;100.00;98749.94;5053563;28;20197;-64
2023/01/10 05:30:41;;;;;;;0.40;0.40;;;;;;;5.79;100.00;98748.25;5053737;28;20602;-65
2023/01/10 05:33:09;;;;;;;0.93;0.93;;;;;;;5.79;100.00;98751.66;5053540;28;20204;-65
2023/01/10 05:35:36;;;;;;;1.40;1.40;;;;;;;5.81;100.00;98724.50;5053557;28;20207;-64
2023/01/10 05:38:03;;;;;;;0.63;0.63;;;;;;;5.65;100.00;98702.81;5053245;28;20220;-65
2023/01/10 05:40:30;;;;;;;0.57;0.57;;;;;;;5.81;100.00;98713.47;5053217;28;20284;-64
2023/01/10 05:42:57;;;;;;;0.70;0.70;;;;;;;5.72;100.00;98711.13;5050087;28;20193;-65
2023/01/10 05:45:24;;;;;;;0.77;0.77;;;;;;;5.69;100.00;98721.34;5053135;28;20208;-65
2023/01/10 05:47:50;;;;;;;0.77;0.77;;;;;;;5.70;100.00;98708.63;5050576;28;20209;-65
2023/01/10 05:50:19;;;;;;;0.73;0.73;;;;;;;5.69;100.00;98714.56;5050172;28;20254;-65
2023/01/10 05:52:45;;;;;;;0.50;0.50;;;;;;;5.61;100.00;98691.03;5051355;28;20225;-65
2023/01/10 05:55:12;;;;;;;0.67;0.67;;;;;;;5.76;100.00;98715.28;5047968;28;20205;-64
2023/01/10 05:57:39;;;;;;;0.50;0.50;;;;;;;5.76;100.00;98721.19;5052502;28;20204;-64
2023/01/10 06:00:07;;;;;;;0.87;0.87;;;;;;;5.78;100.00;98729.63;5052908;28;20200;-65
2023/01/10 06:02:34;;;;;;;0.50;0.50;;;;;;;5.65;100.00;98732.47;5052890;28;20197;-65
2023/01/10 06:05:01;;;;;;;0.60;0.60;;;;;;;5.66;100.00;98741.75;5052620;28;20303;-64
2023/01/10 06:07:31;;;;;;;0.63;0.63;;;;;;;5.74;100.00;98747.53;5053157;28;20595;-65
2023/01/10 06:09:57;;;;;;;0.50;0.50;;;;;;;5.75;100.00;98752.56;5049213;28;20207;-64
2023/01/10 06:12:24;;;;;;;0.50;0.50;;;;;;;5.69;100.00;98737.47;5052749;28;20692;-65
2023/01/10 06:14:51;;;;;;;1.03;1.03;;;;;;;5.78;100.00;98744.06;5052898;28;20196;-65
2023/01/10 06:17:18;;;;;;;0.80;0.80;;;;;;;5.82;100.00;98740.56;5052194;28;20200;-65
2023/01/10 06:19:44;;;;;;;0.80;0.80;;;;;;;5.80;100.00;98737.22;5052546;28;20208;-65
2023/01/10 06:22:11;;;;;;;0.67;0.67;;;;;;;5.72;100.00;98719.59;5052937;28;20742;-65
2023/01/10 06:24:41;;;;;;;0.53;0.53;;;;;;;5.84;100.00;98743.94;5052684;28;20204;-65
2023/01/10 06:27:08;;;;;;;0.57;0.57;;;;;;;5.85;100.00;98737.97;5052763;28;20296;-65
2023/01/10 06:29:34;;;;;;;0.63;0.63;;;;;;;5.86;100.00;98742.22;5050384;28;20288;-65
2023/01/10 06:32:01;;;;;;;0.70;0.70;;;;;;;5.82;100.00;98731.25;5051108;28;20646;-64
2023/01/10 06:34:28;;;;;;;0.50;0.50;;;;;;;5.83;100.00;98744.78;5052073;28;20696;-65
2023/01/10 06:36:55;;;;;;;0.70;0.70;;;;;;;5.81;100.00;98737.22;5052750;28;20742;-65
2023/01/10 06:39:21;;;;;;;1.07;1.07;;;;;;;5.83;100.00;98721.91;5052518;28;20258;-65
2023/01/10 06:41:50;;;;;;;0.60;0.60;;;;;;;5.80;100.00;98709.25;5051585;28;20203;-65
2023/01/10 06:44:16;;;;;;;0.50;0.50;;;;;;;5.76;100.00;98705.09;5052059;28;20197;-65
2023/01/10 06:46:43;;;;;;;0.60;0.60;;;;;;;5.84;100.00;98708.31;5051930;28;20205;-65
2023/01/10 06:49:10;;;;;;;0.60;0.60;;;;;;;5.85;100.00;98725.25;5052233;28;20264;-65
2023/01/10 06:51:37;;;;;;;1.00;1.00;;;;;;;5.79;100.00;98740.63;5047067;28;20224;-65
2023/01/10 06:54:04;;;;;;;0.60;0.60;;;;;;;5.75;100.00;98733.97;5049085;28;20208;-65
2023/01/10 06:56:31;;;;;;;1.03;0.80;;;;;;;5.64;100.00;98710.47;5049933;28;20212;-65
2023/01/10 06:58:59;;;;;;;0.50;0.50;;;;;;;5.75;100.00;98728.88;5050082;28;20225;-63
2023/01/10 07:01:26;;;;;;;0.60;0.60;;;;;;;5.70;100.00;98715.41;5049145;28;20204;-64
2023/01/10 07:03:53;;;;;;;0.57;0.57;;;;;;;5.64;100.00;98707.91;5049429;28;20331;-63
2023/01/10 07:06:20;;;;;;;0.60;0.60;;;;;;;5.77;100.00;98717.81;5050264;28;20254;-64
2023/01/10 07:08:47;;;;;;;0.50;0.50;;;;;;;5.80;100.00;98727.06;5048838;28;20230;-65
2023/01/10 07:11:15;;;;;;;0.50;0.50;;;;;;;5.80;100.00;98721.97;5045458;28;20208;-65
2023/01/10 07:13:42;;;;;;;0.67;0.67;;;;;;;5.79;100.00;98702.50;5049426;28;20641;-67
2023/01/10 07:16:12;;;;;;;0.60;0.60;;;;;;;5.78;100.00;98704.19;5048913;28;20228;-66
2023/01/10 07:18:40;;;;;;;0.60;0.60;;;;;;;5.78;100.00;98705.94;5049649;28;20204;-66
2023/01/10 07:21:07;;;;;;;0.50;0.50;;;;;;;5.76;100.00;98694.94;5050508;28;20197;-65
2023/01/10 07:23:34;;;;;;;0.70;0.70;;;;;;;5.73;100.00;98689.91;5050391;28;20197;-64
2023/01/10 07:26:03;;;;;;;0.50;0.50;;;;;;;5.68;100.00;98691.75;5050247;28;20207;-65
2023/01/10 07:28:30;;;;;;;0.60;0.60;;;;;;;5.58;100.00;98675.00;5048050;28;20208;-65
2023/01/10 07:30:59;;;;;;;0.70;0.70;;;;;;;5.61;100.00;98672.41;5049775;28;20208;-65
2023/01/10 07:33:27;;;;;;;0.60;0.60;;;;;;;5.58;100.00;98665.69;5049574;28;20225;-66
2023/01/10 07:35:54;;;;;;;0.67;0.67;;;;;;;5.61;100.00;98659.69;5049759;28;20213;-65
2023/01/10 07:38:21;;;;;;;0.70;0.70;;;;;;;5.66;100.00;98648.53;5047997;28;20209;-66
2023/01/10 07:40:48;;;;;;;0.80;0.80;;;;;;;5.69;100.00;98640.00;5049831;28;20266;-66
2023/01/10 07:43:15;;;;;;;0.80;0.80;;;;;;;5.75;100.00;98639.88;5049650;28;20224;-65
2023/01/10 07:45:41;;;;;;;0.60;0.60;;;;;;;5.79;100.00;98644.84;5048363;28;20266;-66
2023/01/10 07:48:09;;;;;;;0.67;0.67;;;;;;;5.79;100.00;98644.84;5050389;28;20205;-65
2023/01/10 07:50:37;;;;;;;1.77;1.77;;;;;;;5.76;100.00;98633.91;5049210;28;20205;-65
2023/01/10 07:53:07;;;;;;;0.67;0.67;;;;;;;5.78;100.00;98647.44;5049560;28;20223;-65
2023/01/10 07:55:37;;;;;;;0.50;0.50;;;;;;;5.81;100.00;98637.19;5049882;28;20307;-65
2023/01/10 07:58:05;;;;;;;0.80;0.80;;;;;;;5.86;100.00;98642.19;5049173;28;20657;-65
2023/01/10 08:00:32;;;;;;;0.80;0.80;;;;;;;5.91;100.00;98635.31;5049707;28;20615;-65
2023/01/10 08:02:59;;;;;;;0.40;0.40;;;;;;;5.90;100.00;98631.06;5050379;28;20208;-65
2023/01/10 08:05:26;;;;;;;0.50;0.50;;;;;;;5.88;100.00;98632.84;5048497;28;20232;-65
2023/01/10 08:07:58;;;;;;;0.50;0.50;;;;;;;5.87;100.00;98619.28;5048254;28;20228;-65
2023/01/10 08:10:25;;;;;;;0.77;0.77;;;;;;;5.90;100.00;98609.03;5047294;28;20232;-65
2023/01/10 08:12:52;;;;;;;0.60;0.60;;;;;;;5.87;100.00;98588.75;5049096;28;20311;-66
2023/01/10 08:15:19;;;;;;;0.50;0.50;;;;;;;5.97;100.00;98607.16;5049582;28;20213;-66
2023/01/10 08:17:46;;;;;;;0.60;0.60;;;;;;;5.98;100.00;98612.19;5048100;28;20204;-66
2023/01/10 08:20:13;;;;;;;0.60;0.60;;;;;;;6.04;100.00;98617.13;5048308;28;20208;-65
2023/01/10 08:22:39;;;;;;;0.67;0.67;;;;;;;6.03;100.00;98607.84;5049127;28;20200;-65
2023/01/10 08:25:08;;;;;;;0.50;0.50;;;;;;;6.05;100.00;98621.34;5049140;28;20203;-65
2023/01/10 08:27:35;;;;;;;0.60;0.60;;;;;;;6.01;100.00;98618.94;5046421;28;20197;-65
2023/01/10 08:30:02;;;;;;;0.60;0.60;;;;;;;5.97;100.00;98628.34;5046679;28;20204;-66
2023/01/10 08:32:29;;;;;;;0.60;0.60;;;;;;;5.93;100.00;98629.31;5048116;28;20242;-65
2023/01/10 08:34:56;;;;;;;0.50;0.50;;;;;;;5.85;100.00;98628.59;5048992;28;20868;-65
2023/01/10 08:37:23;;;;;;;0.60;0.60;;;;;;;5.80;100.00;98615.16;5048289;28;20223;-66
2023/01/10 08:39:50;;;;;;;3.90;1.00;;;;;;;5.71;100.00;98600.97;5049364;28;20291;-65
2023/01/10 08:42:18;;;;;;;0.60;0.60;;;;;;;5.72;100.00;98591.59;5048708;28;20276;-65
2023/01/10 08:44:45;;;;;;;1.13;1.13;;;;;;;5.75;100.00;98591.56;5048738;28;20258;-64
2023/01/10 08:47:12;;;;;;;0.90;0.90;;;;;;;5.67;100.00;98584.09;5048016;28;20212;-66
2023/01/10 08:49:39;;;;;;;1.47;1.47;;;;;;;5.50;100.00;98570.94;5048961;28;20681;-65
2023/01/10 08:52:06;;;;;;;0.90;0.90;;;;;;;5.49;100.00;98573.53;5047897;28;20228;-64
2023/01/10 08:54:33;;;;;;;0.70;0.70;;;;;;;5.46;100.00;98568.53;5050360;28;20274;-65
2023/01/10 08:56:59;;;;;;;0.63;0.63;;;;;;;5.36;100.00;98578.06;5053012;28;20215;-64
2023/01/10 08:59:28;;;;;;;0.57;0.57;;;;;;;5.40;100.00;98563.56;5053532;28;20259;-65
2023/01/10 09:01:57;;;;;;;0.50;0.50;;;;;;;5.37;100.00;98564.47;5048729;28;20716;-66
2023/01/10 09:04:25;;;;;;;0.50;0.50;;;;;;;5.36;100.00;98561.97;5051852;28;20313;-65
2023/01/10 09:06:51;;;;;;;0.70;0.70;;;;;;;5.39;100.00;98572.06;5052346;28;20565;-65
2023/01/10 09:09:18;;;;;;;1.13;1.03;;;;;;;5.36;100.00;98561.97;5053466;28;20565;-65
2023/01/10 09:11:45;;;;;;;0.60;0.60;;;;;;;5.35;100.00;98567.91;5054321;28;20196;-65
2023/01/10 09:14:12;;;;;;;0.67;0.67;;;;;;;5.28;100.00;98545.19;5054348;28;20219;-65
2023/01/10 09:16:40;;;;;;;0.63;0.63;;;;;;;5.29;100.00;98541.78;5054598;28;20738;-65
2023/01/10 09:19:07;;;;;;;0.70;0.70;;;;;;;5.25;100.00;98530.03;5054487;28;20200;-65
2023/01/10 09:21:33;;;;;;;0.60;0.60;;;;;;;5.27;100.00;98533.34;5054448;28;20271;-65
2023/01/10 09:24:00;;;;;;;0.50;0.50;;;;;;;5.27;100.00;98523.19;5054592;28;20603;-65
2023/01/10 09:26:27;;;;;;;0.80;0.77;;;;;;;5.25;100.00;98506.31;5053992;28;20197;-65
2023/01/10 09:28:54;;;;;;;0.60;0.60;;;;;;;5.39;100.00;98517.00;5053116;28;20692;-65
2023/01/10 09:31:21;;;;;;;0.50;0.50;;;;;;;5.41;100.00;98524.56;5052336;28;20204;-65
2023/01/10 09:33:49;;;;;;;0.50;0.50;;;;;;;5.37;100.00;98508.56;5047942;28;20692;-65
2023/01/10 09:36:16;;;;;;;0.70;0.70;;;;;;;5.39;100.00;98511.91;5051399;28;20673;-65
2023/01/10 09:38:43;;;;;;;0.53;0.53;;;;;;;5.35;100.00;98509.47;5053432;28;20203;-65
2023/01/10 09:41:42;;;;;;;0.63;0.63;;;;;;;5.27;100.00;98502.03;5039424;28;20201;-65
2023/01/10 09:44:19;;;;;;;1.20;1.20;;;;;;;5.24;100.00;98487.69;5046548;28;20208;-66
2023/01/10 09:46:53;;;;;;;0.70;0.70;;;;;;;5.28;100.00;98479.13;5053317;28;20197;-65
2023/01/10 09:49:31;;;;;;;0.60;0.60;;;;;;;5.32;100.00;98471.44;5053090;28;20267;-65
2023/01/10 09:51:58;;;;;;;0.60;0.60;;;;;;;5.35;100.00;98472.19;5049674;28;20200;-64
2023/01/10 09:54:29;;;;;;;0.60;0.60;;;;;;;5.37;100.00;98474.69;5048132;28;20220;-65
2023/01/10 09:56:58;;;;;;;1.00;1.00;;;;;;;5.38;100.00;98469.59;5047137;28;20948;-65
2023/01/10 09:59:27;;;;;;;0.90;0.90;;;;;;;5.43;100.00;98461.84;5042310;28;20197;-65
2023/01/10 10:02:01;;;;;;;0.70;0.70;;;;;;;5.48;100.00;98450.69;5041899;28;20664;-65
2023/01/10 10:04:34;;;;;;;0.70;0.70;;;;;;;5.50;100.00;98446.41;5040599;28;20239;-65
2023/01/10 10:07:01;;;;;;;1.00;1.00;;;;;;;5.51;100.00;98450.63;5050320;28;20211;-65
2023/01/10 10:09:30;;;;;;;0.50;0.50;;;;;;;5.55;100.00;98443.75;5041932;28;20208;-65
2023/01/10 10:12:14;;;;;;;0.80;0.80;;;;;;;5.53;100.00;98446.31;5043244;28;20259;-65
2023/01/10 10:14:52;;;;;;;0.50;0.50;;;;;;;5.49;100.00;98434.59;5039315;28;20663;-65
2023/01/10 10:17:32;;;;;;;0.60;0.60;;;;;;;5.56;100.00;98432.69;5045852;28;20200;-64
2023/01/10 10:20:16;;;;;;;0.40;0.40;;;;;;;5.56;100.00;98432.69;5047171;28;20207;-65
2023/01/10 10:22:53;;;;;;;0.43;0.43;;;;;;;5.59;100.00;98433.44;5043377;28;20200;-65
2023/01/10 10:25:38;;;;;;;0.60;0.60;;;;;;;5.57;100.00;98425.03;5042561;28;20208;-65
2023/01/10 10:28:22;;;;;;;0.60;0.60;;;;;;;5.61;100.00;98421.56;5050093;28;20204;-65
2023/01/10 10:30:56;;;;;;;0.80;0.80;;;;;;;5.65;100.00;98409.59;5050794;28;20208;-64
2023/01/10 10:33:43;;;;;;;0.50;0.50;;;;;;;5.62;100.00;98387.59;5046004;28;20221;-65
2023/01/10 10:36:18;;;;;;;1.23;1.23;;;;;;;5.41;100.00;98351.75;5049158;28;20201;-65
2023/01/10 10:38:48;;;;;;;0.50;0.50;;;;;;;5.67;100.00;98384.97;5047613;28;20219;-65
2023/01/10 10:41:21;;;;;;;0.63;0.63;;;;;;;5.66;100.00;98379.03;5043774;28;20586;-65
2023/01/10 10:43:49;;;;;;;0.50;0.50;;;;;;;5.70;100.00;98369.63;5049539;28;20217;-66
2023/01/10 10:46:18;;;;;;;0.60;0.60;;;;;;;5.66;100.00;98357.84;5050011;28;20196;-65
2023/01/10 10:48:53;;;;;;;0.67;0.67;;;;;;;5.65;100.00;98340.97;5048533;28;20564;-66
2023/01/10 10:51:25;;;;;;;0.50;0.50;;;;;;;5.71;100.00;98341.63;5049351;28;20616;-65
2023/01/10 10:53:54;;;;;;;0.87;0.87;;;;;;;5.68;100.00;98330.72;5050484;28;20228;-66
2023/01/10 10:56:24;;;;;;;0.47;0.47;;;;;;;5.77;100.00;98330.44;5048307;28;20212;-65
2023/01/10 10:58:54;;;;;;;0.50;0.50;;;;;;;5.74;100.00;98323.75;5045515;28;20212;-65
2023/01/10 11:01:22;;;;;;;0.50;0.50;;;;;;;5.85;100.00;98338.69;5050214;28;20605;-65
2023/01/10 11:03:53;;;;;;;0.70;0.70;;;;;;;5.85;100.00;98333.59;5049549;28;20204;-65
2023/01/10 11:06:26;;;;;;;0.80;0.80;;;;;;;5.87;100.00;98347.16;5046701;28;20603;-65
2023/01/10 11:08:57;;;;;;;0.60;0.60;;;;;;;5.89;100.00;98352.16;5040291;28;20201;-65
2023/01/10 11:11:27;;;;;;;0.60;0.60;;;;;;;5.92;100.00;98344.44;5049754;28;20587;-65
2023/01/10 11:13:56;;;;;;;0.50;0.50;;;;;;;5.91;100.00;98337.72;5049469;28;20731;-65
2023/01/10 11:16:26;;;;;;;0.50;0.50;;;;;;;5.94;100.00;98324.91;5041674;28;20258;-65
2023/01/10 11:19:19;;;;;;;0.60;0.60;;;;;;;5.91;100.00;98302.97;5043202;28;20200;-65
2023/01/10 11:21:56;;;;;;;0.63;0.63;;;;;;;5.60;100.00;98249.56;5041482;28;20246;-65
2023/01/10 11:24:28;;;;;;;0.80;0.80;;;;;;;6.00;100.00;98291.66;5040748;28;20212;-65
2023/01/10 11:26:56;;;;;;;0.40;0.40;;;;;;;6.01;100.00;98268.72;5040721;28;20211;-65
2023/01/10 11:29:26;;;;;;;0.40;0.40;;;;;;;6.02;100.00;98265.31;5045015;28;20286;-65
2023/01/10 11:31:54;;;;;;;0.63;0.63;;;;;;;6.12;100.00;98287.03;5047202;28;20239;-65
2023/01/10 11:34:25;;;;;;;0.60;0.60;;;;;;;6.18;100.00;98286.84;5045421;28;20322;-65
2023/01/10 11:36:55;;;;;;;0.50;0.50;;;;;;;6.16;100.00;98288.63;5044178;28;20205;-65
2023/01/10 11:39:22;;;;;;;0.60;0.60;;;;;;;6.18;100.00;98291.94;5043075;28;20208;-65
2023/01/10 11:41:51;;;;;;;0.87;0.87;;;;;;;6.25;100.00;98298.53;5041379;28;20201;-65
2023/01/10 11:44:23;;;;;;;0.50;0.50;;;;;;;6.22;100.00;98280.81;5042915;28;20219;-65
2023/01/10 11:46:55;;;;;;;0.57;0.57;;;;;;;6.20;100.00;98264.72;5046013;28;20205;-65
2023/01/10 11:49:29;;;;;;;0.60;0.60;;;;;;;6.25;100.00;98267.97;5039044;28;20244;-65
2023/01/10 11:52:03;;;;;;;0.63;0.63;;;;;;;6.38;100.00;98276.06;5040443;28;20710;-65